sensor_id;sensor_type;location;lat;lon;timestamp;P1;durP1;ratioP1;P2;durP2;ratioP2
47760;SDS011;33524;55.434;38.520;2024-03-08T00:00:20;14.95;;;7.60;;
47760;SDS011;33524;55.434;38.520;2024-03-08T00:02:49;22.05;;;12.55;;
47760;SDS011;33524;55.434;38.520;2024-03-08T00:05:20;18.05;;;9.85;;
47760;SDS011;33524;55.434;38.520;2024-03-08T00:07:49;23.40;;;12.35;;
47760;SDS011;33524;55.434;38.520;2024-03-08T00:10:17;31.02;;;14.45;;
47760;SDS011;33524;55.434;38.520;2024-03-08T00:12:45;37.22;;;17.73;;
47760;SDS011;33524;55.434;38.520;2024-03-08T00:15:15;26.05;;;13.15;;
47760;SDS011;33524;55.434;38.520;2024-03-08T00:17:46;38.05;;;17.90;;
47760;SDS011;33524;55.434;38.520;2024-03-08T00:20:16;22.50;;;10.73;;
47760;SDS011;33524;55.434;38.520;2024-03-08T00:22:47;19.55;;;9.40;;
47760;SDS011;33524;55.434;38.520;2024-03-08T00:25:16;14.15;;;7.47;;
47760;SDS011;33524;55.434;38.520;2024-03-08T00:27:44;62.47;;;22.73;;
47760;SDS011;33524;55.434;38.520;2024-03-08T00:30:12;26.77;;;11.23;;
47760;SDS011;33524;55.434;38.520;2024-03-08T00:32:44;21.85;;;9.13;;
47760;SDS011;33524;55.434;38.520;2024-03-08T00:35:12;28.75;;;12.52;;
47760;SDS011;33524;55.434;38.520;2024-03-08T00:37:41;27.30;;;11.68;;
47760;SDS011;33524;55.434;38.520;2024-03-08T00:40:10;15.82;;;8.48;;
47760;SDS011;33524;55.434;38.520;2024-03-08T00:42:38;10.27;;;5.45;;
47760;SDS011;33524;55.434;38.520;2024-03-08T00:45:07;16.87;;;8.32;;
47760;SDS011;33524;55.434;38.520;2024-03-08T00:47:38;12.00;;;6.55;;
47760;SDS011;33524;55.434;38.520;2024-03-08T00:50:06;12.35;;;5.78;;
47760;SDS011;33524;55.434;38.520;2024-03-08T00:52:36;8.63;;;5.62;;
47760;SDS011;33524;55.434;38.520;2024-03-08T00:55:05;14.98;;;8.38;;
47760;SDS011;33524;55.434;38.520;2024-03-08T00:57:35;12.13;;;5.93;;
47760;SDS011;33524;55.434;38.520;2024-03-08T01:00:04;12.95;;;6.28;;
47760;SDS011;33524;55.434;38.520;2024-03-08T01:02:38;27.48;;;12.45;;
47760;SDS011;33524;55.434;38.520;2024-03-08T01:05:07;27.40;;;13.98;;
47760;SDS011;33524;55.434;38.520;2024-03-08T01:07:36;31.83;;;15.15;;
47760;SDS011;33524;55.434;38.520;2024-03-08T01:10:05;35.08;;;17.70;;
47760;SDS011;33524;55.434;38.520;2024-03-08T01:12:37;35.00;;;17.03;;
47760;SDS011;33524;55.434;38.520;2024-03-08T01:15:07;23.42;;;12.37;;
47760;SDS011;33524;55.434;38.520;2024-03-08T01:17:37;24.12;;;12.60;;
47760;SDS011;33524;55.434;38.520;2024-03-08T01:20:06;23.15;;;12.82;;
47760;SDS011;33524;55.434;38.520;2024-03-08T01:22:35;21.85;;;9.60;;
47760;SDS011;33524;55.434;38.520;2024-03-08T01:25:03;18.98;;;10.55;;
47760;SDS011;33524;55.434;38.520;2024-03-08T01:27:32;22.30;;;11.98;;
47760;SDS011;33524;55.434;38.520;2024-03-08T01:30:03;20.35;;;10.27;;
47760;SDS011;33524;55.434;38.520;2024-03-08T01:32:31;28.25;;;14.50;;
47760;SDS011;33524;55.434;38.520;2024-03-08T01:35:01;20.58;;;10.10;;
47760;SDS011;33524;55.434;38.520;2024-03-08T01:37:31;22.35;;;11.00;;
47760;SDS011;33524;55.434;38.520;2024-03-08T01:39:59;21.65;;;11.10;;
47760;SDS011;33524;55.434;38.520;2024-03-08T01:42:29;25.77;;;11.80;;
47760;SDS011;33524;55.434;38.520;2024-03-08T01:44:57;19.40;;;11.10;;
47760;SDS011;33524;55.434;38.520;2024-03-08T01:47:26;23.75;;;11.20;;
47760;SDS011;33524;55.434;38.520;2024-03-08T01:49:54;19.33;;;10.45;;
47760;SDS011;33524;55.434;38.520;2024-03-08T01:52:22;19.02;;;10.75;;
47760;SDS011;33524;55.434;38.520;2024-03-08T01:54:52;24.58;;;11.68;;
47760;SDS011;33524;55.434;38.520;2024-03-08T01:57:21;17.60;;;10.52;;
47760;SDS011;33524;55.434;38.520;2024-03-08T01:59:50;24.35;;;12.23;;
47760;SDS011;33524;55.434;38.520;2024-03-08T02:02:18;22.05;;;11.63;;
47760;SDS011;33524;55.434;38.520;2024-03-08T02:04:48;20.05;;;10.55;;
47760;SDS011;33524;55.434;38.520;2024-03-08T02:07:16;16.62;;;10.45;;
47760;SDS011;33524;55.434;38.520;2024-03-08T02:09:44;17.67;;;10.88;;
47760;SDS011;33524;55.434;38.520;2024-03-08T02:12:12;21.05;;;11.15;;
47760;SDS011;33524;55.434;38.520;2024-03-08T02:14:41;20.02;;;10.88;;
47760;SDS011;33524;55.434;38.520;2024-03-08T02:17:11;20.75;;;11.12;;
47760;SDS011;33524;55.434;38.520;2024-03-08T02:19:40;23.27;;;11.10;;
47760;SDS011;33524;55.434;38.520;2024-03-08T02:22:09;14.75;;;9.52;;
47760;SDS011;33524;55.434;38.520;2024-03-08T02:24:37;23.02;;;11.48;;
47760;SDS011;33524;55.434;38.520;2024-03-08T02:27:05;17.33;;;11.10;;
47760;SDS011;33524;55.434;38.520;2024-03-08T02:29:34;13.88;;;8.52;;
47760;SDS011;33524;55.434;38.520;2024-03-08T02:32:03;15.05;;;8.93;;
47760;SDS011;33524;55.434;38.520;2024-03-08T02:34:32;21.10;;;11.63;;
47760;SDS011;33524;55.434;38.520;2024-03-08T02:37:00;13.68;;;6.80;;
47760;SDS011;33524;55.434;38.520;2024-03-08T02:39:28;15.70;;;10.05;;
47760;SDS011;33524;55.434;38.520;2024-03-08T02:41:57;16.83;;;9.82;;
47760;SDS011;33524;55.434;38.520;2024-03-08T02:44:25;13.80;;;7.90;;
47760;SDS011;33524;55.434;38.520;2024-03-08T02:46:53;18.50;;;11.68;;
47760;SDS011;33524;55.434;38.520;2024-03-08T02:49:22;18.92;;;11.18;;
47760;SDS011;33524;55.434;38.520;2024-03-08T02:51:51;11.50;;;7.28;;
47760;SDS011;33524;55.434;38.520;2024-03-08T02:54:19;17.98;;;12.07;;
47760;SDS011;33524;55.434;38.520;2024-03-08T02:56:48;17.90;;;10.20;;
47760;SDS011;33524;55.434;38.520;2024-03-08T02:59:19;20.73;;;10.20;;
47760;SDS011;33524;55.434;38.520;2024-03-08T03:01:48;12.88;;;7.40;;
47760;SDS011;33524;55.434;38.520;2024-03-08T03:04:16;10.48;;;5.68;;
47760;SDS011;33524;55.434;38.520;2024-03-08T03:06:44;12.15;;;7.10;;
47760;SDS011;33524;55.434;38.520;2024-03-08T03:09:13;19.27;;;10.70;;
47760;SDS011;33524;55.434;38.520;2024-03-08T03:11:44;13.68;;;9.23;;
47760;SDS011;33524;55.434;38.520;2024-03-08T03:14:12;17.27;;;10.05;;
47760;SDS011;33524;55.434;38.520;2024-03-08T03:16:40;17.12;;;10.05;;
47760;SDS011;33524;55.434;38.520;2024-03-08T03:19:11;16.45;;;10.02;;
47760;SDS011;33524;55.434;38.520;2024-03-08T03:21:39;18.98;;;10.18;;
47760;SDS011;33524;55.434;38.520;2024-03-08T03:24:07;14.43;;;8.10;;
47760;SDS011;33524;55.434;38.520;2024-03-08T03:26:38;19.73;;;10.43;;
47760;SDS011;33524;55.434;38.520;2024-03-08T03:29:08;17.90;;;9.27;;
47760;SDS011;33524;55.434;38.520;2024-03-08T03:31:38;17.12;;;8.98;;
47760;SDS011;33524;55.434;38.520;2024-03-08T03:34:07;18.98;;;10.68;;
47760;SDS011;33524;55.434;38.520;2024-03-08T03:36:36;16.17;;;8.77;;
47760;SDS011;33524;55.434;38.520;2024-03-08T03:39:05;18.17;;;10.85;;
47760;SDS011;33524;55.434;38.520;2024-03-08T03:41:38;18.35;;;10.15;;
47760;SDS011;33524;55.434;38.520;2024-03-08T03:44:07;22.08;;;12.13;;
47760;SDS011;33524;55.434;38.520;2024-03-08T03:46:37;20.70;;;10.73;;
47760;SDS011;33524;55.434;38.520;2024-03-08T03:49:05;11.63;;;7.22;;
47760;SDS011;33524;55.434;38.520;2024-03-08T03:51:34;8.30;;;5.05;;
47760;SDS011;33524;55.434;38.520;2024-03-08T03:54:02;12.50;;;6.62;;
47760;SDS011;33524;55.434;38.520;2024-03-08T03:56:31;19.85;;;11.18;;
47760;SDS011;33524;55.434;38.520;2024-03-08T03:58:59;16.12;;;10.48;;
47760;SDS011;33524;55.434;38.520;2024-03-08T04:01:27;18.17;;;10.65;;
47760;SDS011;33524;55.434;38.520;2024-03-08T04:03:57;19.17;;;10.55;;
47760;SDS011;33524;55.434;38.520;2024-03-08T04:06:25;17.98;;;9.63;;
47760;SDS011;33524;55.434;38.520;2024-03-08T04:08:53;19.75;;;9.45;;
47760;SDS011;33524;55.434;38.520;2024-03-08T04:11:22;16.85;;;9.68;;
47760;SDS011;33524;55.434;38.520;2024-03-08T04:13:50;12.18;;;6.57;;
47760;SDS011;33524;55.434;38.520;2024-03-08T04:16:20;19.08;;;10.52;;
47760;SDS011;33524;55.434;38.520;2024-03-08T04:18:48;17.00;;;11.38;;
47760;SDS011;33524;55.434;38.520;2024-03-08T04:21:16;15.20;;;7.97;;
47760;SDS011;33524;55.434;38.520;2024-03-08T04:23:46;16.30;;;8.95;;
47760;SDS011;33524;55.434;38.520;2024-03-08T04:26:15;20.60;;;11.50;;
47760;SDS011;33524;55.434;38.520;2024-03-08T04:28:45;17.75;;;9.48;;
47760;SDS011;33524;55.434;38.520;2024-03-08T04:31:13;19.85;;;10.48;;
47760;SDS011;33524;55.434;38.520;2024-03-08T04:33:47;16.73;;;10.23;;
47760;SDS011;33524;55.434;38.520;2024-03-08T04:36:16;14.68;;;10.10;;
47760;SDS011;33524;55.434;38.520;2024-03-08T04:38:44;19.27;;;10.40;;
47760;SDS011;33524;55.434;38.520;2024-03-08T04:41:14;20.30;;;11.77;;
47760;SDS011;33524;55.434;38.520;2024-03-08T04:43:42;17.45;;;11.10;;
47760;SDS011;33524;55.434;38.520;2024-03-08T04:46:10;24.80;;;14.18;;
47760;SDS011;33524;55.434;38.520;2024-03-08T04:48:38;21.95;;;13.27;;
47760;SDS011;33524;55.434;38.520;2024-03-08T04:51:06;22.58;;;13.32;;
47760;SDS011;33524;55.434;38.520;2024-03-08T04:53:35;21.58;;;12.30;;
47760;SDS011;33524;55.434;38.520;2024-03-08T04:56:03;22.10;;;11.85;;
47760;SDS011;33524;55.434;38.520;2024-03-08T04:58:37;18.17;;;10.40;;
47760;SDS011;33524;55.434;38.520;2024-03-08T05:01:05;21.52;;;10.27;;
47760;SDS011;33524;55.434;38.520;2024-03-08T05:03:37;25.20;;;11.35;;
47760;SDS011;33524;55.434;38.520;2024-03-08T05:06:07;19.25;;;11.23;;
47760;SDS011;33524;55.434;38.520;2024-03-08T05:08:36;25.98;;;11.75;;
47760;SDS011;33524;55.434;38.520;2024-03-08T05:11:04;21.25;;;11.50;;
47760;SDS011;33524;55.434;38.520;2024-03-08T05:13:35;22.15;;;12.07;;
47760;SDS011;33524;55.434;38.520;2024-03-08T05:16:03;19.08;;;9.35;;
47760;SDS011;33524;55.434;38.520;2024-03-08T05:18:31;16.70;;;10.30;;
47760;SDS011;33524;55.434;38.520;2024-03-08T05:21:00;19.10;;;11.55;;
47760;SDS011;33524;55.434;38.520;2024-03-08T05:23:31;29.87;;;15.52;;
47760;SDS011;33524;55.434;38.520;2024-03-08T05:25:59;22.95;;;12.77;;
47760;SDS011;33524;55.434;38.520;2024-03-08T05:28:28;24.73;;;12.95;;
47760;SDS011;33524;55.434;38.520;2024-03-08T05:30:56;28.15;;;13.30;;
47760;SDS011;33524;55.434;38.520;2024-03-08T05:33:24;25.90;;;12.50;;
47760;SDS011;33524;55.434;38.520;2024-03-08T05:35:53;27.02;;;15.63;;
47760;SDS011;33524;55.434;38.520;2024-03-08T05:38:21;26.87;;;14.43;;
47760;SDS011;33524;55.434;38.520;2024-03-08T05:40:49;27.90;;;13.52;;
47760;SDS011;33524;55.434;38.520;2024-03-08T05:43:18;26.90;;;14.93;;
47760;SDS011;33524;55.434;38.520;2024-03-08T05:45:47;24.83;;;12.20;;
47760;SDS011;33524;55.434;38.520;2024-03-08T05:48:15;28.77;;;14.70;;
47760;SDS011;33524;55.434;38.520;2024-03-08T05:50:43;20.25;;;11.18;;
47760;SDS011;33524;55.434;38.520;2024-03-08T05:53:12;23.10;;;11.93;;
47760;SDS011;33524;55.434;38.520;2024-03-08T05:55:40;24.65;;;12.07;;
47760;SDS011;33524;55.434;38.520;2024-03-08T05:58:08;18.02;;;11.75;;
47760;SDS011;33524;55.434;38.520;2024-03-08T06:00:38;21.62;;;11.93;;
47760;SDS011;33524;55.434;38.520;2024-03-08T06:03:07;21.00;;;11.05;;
47760;SDS011;33524;55.434;38.520;2024-03-08T06:05:35;21.20;;;12.23;;
47760;SDS011;33524;55.434;38.520;2024-03-08T06:08:09;20.42;;;12.43;;
47760;SDS011;33524;55.434;38.520;2024-03-08T06:10:39;19.25;;;11.70;;
47760;SDS011;33524;55.434;38.520;2024-03-08T06:13:07;18.48;;;11.40;;
47760;SDS011;33524;55.434;38.520;2024-03-08T06:15:35;18.30;;;11.32;;
47760;SDS011;33524;55.434;38.520;2024-03-08T06:18:03;19.67;;;10.38;;
47760;SDS011;33524;55.434;38.520;2024-03-08T06:20:33;22.67;;;12.88;;
47760;SDS011;33524;55.434;38.520;2024-03-08T06:23:02;23.27;;;12.02;;
47760;SDS011;33524;55.434;38.520;2024-03-08T06:25:30;21.15;;;13.25;;
47760;SDS011;33524;55.434;38.520;2024-03-08T06:27:58;23.38;;;13.55;;
47760;SDS011;33524;55.434;38.520;2024-03-08T06:30:27;28.10;;;16.92;;
47760;SDS011;33524;55.434;38.520;2024-03-08T06:32:54;34.00;;;17.95;;
47760;SDS011;33524;55.434;38.520;2024-03-08T06:35:22;30.25;;;15.15;;
47760;SDS011;33524;55.434;38.520;2024-03-08T06:37:51;27.00;;;15.27;;
47760;SDS011;33524;55.434;38.520;2024-03-08T06:40:19;24.92;;;14.75;;
47760;SDS011;33524;55.434;38.520;2024-03-08T06:42:47;22.25;;;12.90;;
47760;SDS011;33524;55.434;38.520;2024-03-08T06:45:15;23.77;;;13.50;;
47760;SDS011;33524;55.434;38.520;2024-03-08T06:47:48;15.98;;;10.45;;
47760;SDS011;33524;55.434;38.520;2024-03-08T06:50:18;18.50;;;10.75;;
47760;SDS011;33524;55.434;38.520;2024-03-08T06:53:11;18.58;;;10.85;;
47760;SDS011;33524;55.434;38.520;2024-03-08T06:55:40;18.87;;;12.20;;
47760;SDS011;33524;55.434;38.520;2024-03-08T06:58:08;23.25;;;15.07;;
47760;SDS011;33524;55.434;38.520;2024-03-08T07:00:38;17.33;;;10.23;;
47760;SDS011;33524;55.434;38.520;2024-03-08T07:03:09;18.48;;;11.50;;
47760;SDS011;33524;55.434;38.520;2024-03-08T07:05:39;17.95;;;11.73;;
47760;SDS011;33524;55.434;38.520;2024-03-08T07:08:08;15.02;;;10.60;;
47760;SDS011;33524;55.434;38.520;2024-03-08T07:10:36;13.82;;;9.05;;
47760;SDS011;33524;55.434;38.520;2024-03-08T07:13:05;13.73;;;8.90;;
47760;SDS011;33524;55.434;38.520;2024-03-08T07:15:33;12.48;;;8.45;;
47760;SDS011;33524;55.434;38.520;2024-03-08T07:18:02;13.73;;;9.18;;
47760;SDS011;33524;55.434;38.520;2024-03-08T07:20:31;15.23;;;8.68;;
47760;SDS011;33524;55.434;38.520;2024-03-08T07:22:59;11.95;;;9.48;;
47760;SDS011;33524;55.434;38.520;2024-03-08T07:25:27;9.38;;;6.60;;
47760;SDS011;33524;55.434;38.520;2024-03-08T07:27:56;11.70;;;9.18;;
47760;SDS011;33524;55.434;38.520;2024-03-08T07:30:26;9.75;;;7.50;;
47760;SDS011;33524;55.434;38.520;2024-03-08T07:33:17;9.98;;;7.43;;
47760;SDS011;33524;55.434;38.520;2024-03-08T07:35:46;13.95;;;8.60;;
47760;SDS011;33524;55.434;38.520;2024-03-08T07:38:14;9.25;;;6.43;;
47760;SDS011;33524;55.434;38.520;2024-03-08T07:40:42;13.95;;;9.27;;
47760;SDS011;33524;55.434;38.520;2024-03-08T07:43:14;9.30;;;7.05;;
47760;SDS011;33524;55.434;38.520;2024-03-08T07:45:42;11.43;;;8.80;;
47760;SDS011;33524;55.434;38.520;2024-03-08T07:48:10;10.63;;;7.70;;
47760;SDS011;33524;55.434;38.520;2024-03-08T07:50:41;11.02;;;8.43;;
47760;SDS011;33524;55.434;38.520;2024-03-08T07:53:09;10.70;;;6.57;;
47760;SDS011;33524;55.434;38.520;2024-03-08T07:55:37;10.13;;;6.87;;
47760;SDS011;33524;55.434;38.520;2024-03-08T07:58:07;9.32;;;7.35;;
47760;SDS011;33524;55.434;38.520;2024-03-08T08:00:38;12.00;;;8.23;;
47760;SDS011;33524;55.434;38.520;2024-03-08T08:03:08;11.05;;;7.47;;
47760;SDS011;33524;55.434;38.520;2024-03-08T08:05:36;12.25;;;8.07;;
47760;SDS011;33524;55.434;38.520;2024-03-08T08:08:07;9.80;;;6.85;;
47760;SDS011;33524;55.434;38.520;2024-03-08T08:10:39;10.25;;;6.53;;
47760;SDS011;33524;55.434;38.520;2024-03-08T08:13:07;10.13;;;8.07;;
47760;SDS011;33524;55.434;38.520;2024-03-08T08:15:35;11.05;;;8.52;;
47760;SDS011;33524;55.434;38.520;2024-03-08T08:18:04;10.00;;;7.43;;
47760;SDS011;33524;55.434;38.520;2024-03-08T08:20:34;8.85;;;6.78;;
47760;SDS011;33524;55.434;38.520;2024-03-08T08:23:02;10.02;;;7.43;;
47760;SDS011;33524;55.434;38.520;2024-03-08T08:25:31;11.50;;;6.85;;
47760;SDS011;33524;55.434;38.520;2024-03-08T08:28:02;8.05;;;6.05;;
47760;SDS011;33524;55.434;38.520;2024-03-08T08:30:32;8.90;;;6.15;;
47760;SDS011;33524;55.434;38.520;2024-03-08T08:33:00;9.30;;;7.05;;
47760;SDS011;33524;55.434;38.520;2024-03-08T08:35:29;8.35;;;6.45;;
47760;SDS011;33524;55.434;38.520;2024-03-08T08:37:57;9.02;;;6.40;;
47760;SDS011;33524;55.434;38.520;2024-03-08T08:40:26;8.07;;;6.30;;
47760;SDS011;33524;55.434;38.520;2024-03-08T08:42:58;9.55;;;6.50;;
47760;SDS011;33524;55.434;38.520;2024-03-08T08:45:27;9.75;;;7.10;;
47760;SDS011;33524;55.434;38.520;2024-03-08T08:47:55;8.27;;;6.70;;
47760;SDS011;33524;55.434;38.520;2024-03-08T08:50:23;9.00;;;5.68;;
47760;SDS011;33524;55.434;38.520;2024-03-08T08:52:52;9.18;;;6.43;;
47760;SDS011;33524;55.434;38.520;2024-03-08T08:55:23;8.70;;;6.22;;
47760;SDS011;33524;55.434;38.520;2024-03-08T09:00:24;9.02;;;6.20;;
47760;SDS011;33524;55.434;38.520;2024-03-08T09:02:55;9.00;;;6.00;;
47760;SDS011;33524;55.434;38.520;2024-03-08T09:05:27;8.88;;;6.43;;
47760;SDS011;33524;55.434;38.520;2024-03-08T09:07:57;10.43;;;6.75;;
47760;SDS011;33524;55.434;38.520;2024-03-08T09:10:25;8.95;;;5.80;;
47760;SDS011;33524;55.434;38.520;2024-03-08T09:12:56;9.35;;;6.82;;
47760;SDS011;33524;55.434;38.520;2024-03-08T09:15:24;9.52;;;5.78;;
47760;SDS011;33524;55.434;38.520;2024-03-08T09:17:54;8.10;;;6.07;;
47760;SDS011;33524;55.434;38.520;2024-03-08T09:20:23;12.73;;;6.47;;
47760;SDS011;33524;55.434;38.520;2024-03-08T09:22:52;11.25;;;6.45;;
47760;SDS011;33524;55.434;38.520;2024-03-08T09:25:20;8.32;;;6.00;;
47760;SDS011;33524;55.434;38.520;2024-03-08T09:27:49;9.43;;;6.35;;
47760;SDS011;33524;55.434;38.520;2024-03-08T09:30:17;11.30;;;6.20;;
47760;SDS011;33524;55.434;38.520;2024-03-08T09:32:45;9.82;;;6.40;;
47760;SDS011;33524;55.434;38.520;2024-03-08T09:35:14;10.95;;;5.85;;
47760;SDS011;33524;55.434;38.520;2024-03-08T09:37:42;8.57;;;5.97;;
47760;SDS011;33524;55.434;38.520;2024-03-08T09:40:10;10.25;;;7.20;;
47760;SDS011;33524;55.434;38.520;2024-03-08T09:45:12;10.43;;;6.53;;
47760;SDS011;33524;55.434;38.520;2024-03-08T09:47:44;11.07;;;6.40;;
47760;SDS011;33524;55.434;38.520;2024-03-08T09:50:13;9.52;;;6.12;;
47760;SDS011;33524;55.434;38.520;2024-03-08T09:52:41;8.40;;;5.87;;
47760;SDS011;33524;55.434;38.520;2024-03-08T09:55:11;9.13;;;6.10;;
47760;SDS011;33524;55.434;38.520;2024-03-08T09:57:40;11.10;;;6.12;;
47760;SDS011;33524;55.434;38.520;2024-03-08T10:00:25;11.65;;;6.12;;
47760;SDS011;33524;55.434;38.520;2024-03-08T10:02:53;12.82;;;7.20;;
47760;SDS011;33524;55.434;38.520;2024-03-08T10:05:27;12.15;;;7.53;;
47760;SDS011;33524;55.434;38.520;2024-03-08T10:07:56;9.43;;;6.90;;
47760;SDS011;33524;55.434;38.520;2024-03-08T10:10:25;12.13;;;8.13;;
47760;SDS011;33524;55.434;38.520;2024-03-08T10:12:55;9.13;;;5.90;;
47760;SDS011;33524;55.434;38.520;2024-03-08T10:15:26;9.75;;;6.93;;
47760;SDS011;33524;55.434;38.520;2024-03-08T10:18:00;8.50;;;5.32;;
47760;SDS011;33524;55.434;38.520;2024-03-08T10:20:32;8.57;;;5.55;;
47760;SDS011;33524;55.434;38.520;2024-03-08T10:23:00;8.00;;;5.87;;
47760;SDS011;33524;55.434;38.520;2024-03-08T10:25:38;10.52;;;6.00;;
47760;SDS011;33524;55.434;38.520;2024-03-08T10:28:06;10.05;;;5.90;;
47760;SDS011;33524;55.434;38.520;2024-03-08T10:30:35;9.23;;;5.55;;
47760;SDS011;33524;55.434;38.520;2024-03-08T10:33:03;9.18;;;5.37;;
47760;SDS011;33524;55.434;38.520;2024-03-08T10:35:33;10.35;;;6.22;;
47760;SDS011;33524;55.434;38.520;2024-03-08T10:38:04;9.15;;;5.72;;
47760;SDS011;33524;55.434;38.520;2024-03-08T10:40:39;8.50;;;6.25;;
47760;SDS011;33524;55.434;38.520;2024-03-08T10:43:10;11.07;;;6.72;;
47760;SDS011;33524;55.434;38.520;2024-03-08T10:46:06;8.35;;;5.82;;
47760;SDS011;33524;55.434;38.520;2024-03-08T10:48:45;8.98;;;5.35;;
47760;SDS011;33524;55.434;38.520;2024-03-08T10:51:17;9.13;;;6.15;;
47760;SDS011;33524;55.434;38.520;2024-03-08T10:53:47;13.35;;;7.18;;
47760;SDS011;33524;55.434;38.520;2024-03-08T10:56:18;13.95;;;7.10;;
47760;SDS011;33524;55.434;38.520;2024-03-08T10:58:46;10.20;;;7.28;;
47760;SDS011;33524;55.434;38.520;2024-03-08T11:01:15;13.00;;;8.25;;
47760;SDS011;33524;55.434;38.520;2024-03-08T11:03:43;12.13;;;8.50;;
47760;SDS011;33524;55.434;38.520;2024-03-08T11:09:08;14.57;;;9.57;;
47760;SDS011;33524;55.434;38.520;2024-03-08T11:14:48;26.67;;;14.50;;
47760;SDS011;33524;55.434;38.520;2024-03-08T11:17:27;16.02;;;11.15;;
47760;SDS011;33524;55.434;38.520;2024-03-08T11:20:12;13.18;;;8.10;;
47760;SDS011;33524;55.434;38.520;2024-03-08T11:28:14;14.85;;;10.23;;
47760;SDS011;33524;55.434;38.520;2024-03-08T11:33:27;14.73;;;9.68;;
47760;SDS011;33524;55.434;38.520;2024-03-08T11:38:45;17.15;;;10.80;;
47760;SDS011;33524;55.434;38.520;2024-03-08T11:41:21;17.48;;;10.38;;
47760;SDS011;33524;55.434;38.520;2024-03-08T11:44:01;16.08;;;9.40;;
47760;SDS011;33524;55.434;38.520;2024-03-08T11:46:34;15.68;;;10.95;;
47760;SDS011;33524;55.434;38.520;2024-03-08T11:49:02;15.82;;;9.43;;
47760;SDS011;33524;55.434;38.520;2024-03-08T11:51:30;15.80;;;10.38;;
47760;SDS011;33524;55.434;38.520;2024-03-08T11:54:00;14.90;;;10.38;;
47760;SDS011;33524;55.434;38.520;2024-03-08T11:56:28;14.65;;;10.00;;
47760;SDS011;33524;55.434;38.520;2024-03-08T11:58:56;12.02;;;8.55;;
47760;SDS011;33524;55.434;38.520;2024-03-08T12:01:25;10.18;;;7.20;;
47760;SDS011;33524;55.434;38.520;2024-03-08T12:03:54;9.85;;;5.43;;
47760;SDS011;33524;55.434;38.520;2024-03-08T12:06:36;13.25;;;7.90;;
47760;SDS011;33524;55.434;38.520;2024-03-08T12:09:09;10.65;;;8.13;;
47760;SDS011;33524;55.434;38.520;2024-03-08T12:11:39;10.13;;;6.47;;
47760;SDS011;33524;55.434;38.520;2024-03-08T12:14:09;12.00;;;7.43;;
47760;SDS011;33524;55.434;38.520;2024-03-08T12:16:38;13.07;;;9.02;;
47760;SDS011;33524;55.434;38.520;2024-03-08T12:19:06;12.02;;;8.48;;
47760;SDS011;33524;55.434;38.520;2024-03-08T12:21:35;13.85;;;8.90;;
47760;SDS011;33524;55.434;38.520;2024-03-08T12:24:07;12.13;;;8.48;;
47760;SDS011;33524;55.434;38.520;2024-03-08T12:26:37;12.23;;;9.20;;
47760;SDS011;33524;55.434;38.520;2024-03-08T12:29:19;13.57;;;9.57;;
47760;SDS011;33524;55.434;38.520;2024-03-08T12:31:51;13.85;;;9.43;;
47760;SDS011;33524;55.434;38.520;2024-03-08T12:34:21;12.43;;;8.27;;
47760;SDS011;33524;55.434;38.520;2024-03-08T12:36:51;15.40;;;10.02;;
47760;SDS011;33524;55.434;38.520;2024-03-08T12:39:22;17.58;;;10.90;;
47760;SDS011;33524;55.434;38.520;2024-03-08T12:41:55;16.90;;;10.90;;
47760;SDS011;33524;55.434;38.520;2024-03-08T12:44:29;15.55;;;9.70;;
47760;SDS011;33524;55.434;38.520;2024-03-08T12:46:57;15.63;;;10.13;;
47760;SDS011;33524;55.434;38.520;2024-03-08T12:49:27;14.43;;;9.77;;
47760;SDS011;33524;55.434;38.520;2024-03-08T12:51:55;15.82;;;10.65;;
47760;SDS011;33524;55.434;38.520;2024-03-08T12:54:26;13.80;;;10.18;;
47760;SDS011;33524;55.434;38.520;2024-03-08T12:56:55;16.25;;;11.35;;
47760;SDS011;33524;55.434;38.520;2024-03-08T12:59:23;14.93;;;10.55;;
47760;SDS011;33524;55.434;38.520;2024-03-08T13:01:51;21.27;;;11.95;;
47760;SDS011;33524;55.434;38.520;2024-03-08T13:04:21;18.75;;;10.55;;
47760;SDS011;33524;55.434;38.520;2024-03-08T13:06:50;19.30;;;13.18;;
47760;SDS011;33524;55.434;38.520;2024-03-08T13:09:21;18.08;;;11.57;;
47760;SDS011;33524;55.434;38.520;2024-03-08T13:11:50;19.67;;;11.82;;
47760;SDS011;33524;55.434;38.520;2024-03-08T13:14:19;17.27;;;13.50;;
47760;SDS011;33524;55.434;38.520;2024-03-08T13:16:47;17.77;;;12.25;;
47760;SDS011;33524;55.434;38.520;2024-03-08T13:19:16;19.70;;;12.18;;
47760;SDS011;33524;55.434;38.520;2024-03-08T13:21:44;17.02;;;10.93;;
47760;SDS011;33524;55.434;38.520;2024-03-08T13:24:17;20.50;;;11.85;;
47760;SDS011;33524;55.434;38.520;2024-03-08T13:26:47;15.50;;;11.10;;
47760;SDS011;33524;55.434;38.520;2024-03-08T13:29:15;16.40;;;11.50;;
47760;SDS011;33524;55.434;38.520;2024-03-08T13:31:43;14.63;;;10.18;;
47760;SDS011;33524;55.434;38.520;2024-03-08T13:34:11;18.02;;;11.10;;
47760;SDS011;33524;55.434;38.520;2024-03-08T13:36:39;20.52;;;12.50;;
47760;SDS011;33524;55.434;38.520;2024-03-08T13:39:12;17.37;;;11.85;;
47760;SDS011;33524;55.434;38.520;2024-03-08T13:41:43;20.35;;;14.98;;
47760;SDS011;33524;55.434;38.520;2024-03-08T13:44:13;18.77;;;12.15;;
47760;SDS011;33524;55.434;38.520;2024-03-08T13:46:43;14.38;;;9.65;;
47760;SDS011;33524;55.434;38.520;2024-03-08T13:49:11;14.05;;;8.68;;
47760;SDS011;33524;55.434;38.520;2024-03-08T13:51:40;14.65;;;8.95;;
47760;SDS011;33524;55.434;38.520;2024-03-08T13:54:08;11.85;;;8.18;;
47760;SDS011;33524;55.434;38.520;2024-03-08T13:56:37;11.52;;;8.70;;
47760;SDS011;33524;55.434;38.520;2024-03-08T13:59:05;11.27;;;7.28;;
47760;SDS011;33524;55.434;38.520;2024-03-08T14:01:34;10.35;;;7.70;;
47760;SDS011;33524;55.434;38.520;2024-03-08T14:04:03;9.63;;;7.35;;
47760;SDS011;33524;55.434;38.520;2024-03-08T14:06:31;10.90;;;6.55;;
47760;SDS011;33524;55.434;38.520;2024-03-08T14:08:59;11.18;;;7.78;;
47760;SDS011;33524;55.434;38.520;2024-03-08T14:11:29;11.82;;;7.12;;
47760;SDS011;33524;55.434;38.520;2024-03-08T14:13:57;11.60;;;7.62;;
47760;SDS011;33524;55.434;38.520;2024-03-08T14:16:25;12.88;;;6.62;;
47760;SDS011;33524;55.434;38.520;2024-03-08T14:18:53;9.98;;;7.00;;
47760;SDS011;33524;55.434;38.520;2024-03-08T14:21:21;11.52;;;7.68;;
47760;SDS011;33524;55.434;38.520;2024-03-08T14:23:49;11.77;;;7.22;;
47760;SDS011;33524;55.434;38.520;2024-03-08T14:26:19;9.15;;;7.12;;
47760;SDS011;33524;55.434;38.520;2024-03-08T14:28:48;10.40;;;7.03;;
47760;SDS011;33524;55.434;38.520;2024-03-08T14:31:20;9.80;;;6.80;;
47760;SDS011;33524;55.434;38.520;2024-03-08T14:33:51;11.02;;;7.40;;
47760;SDS011;33524;55.434;38.520;2024-03-08T14:36:20;11.52;;;8.55;;
47760;SDS011;33524;55.434;38.520;2024-03-08T14:38:51;11.93;;;7.82;;
47760;SDS011;33524;55.434;38.520;2024-03-08T14:41:20;10.65;;;7.62;;
47760;SDS011;33524;55.434;38.520;2024-03-08T14:43:50;12.77;;;7.82;;
47760;SDS011;33524;55.434;38.520;2024-03-08T14:46:20;11.45;;;8.27;;
47760;SDS011;33524;55.434;38.520;2024-03-08T14:48:50;12.13;;;7.05;;
47760;SDS011;33524;55.434;38.520;2024-03-08T14:51:22;11.32;;;7.85;;
47760;SDS011;33524;55.434;38.520;2024-03-08T14:53:53;10.27;;;7.82;;